Cosco Asia — 3ELQ8 — position and weather

sailwx.info

Track history (hours):
 
Tides and Currents Weather Stations Pressure Air Temp Water Temp Dewpoint Dewpoint Depression Visibility Wind Speed Wind Dir Waves Ship Positions

Cosco Asia

Last reported at 2018-Feb-14 20:50 UTC. Time now 2018-Feb-19 18:15 UTC.
Position N 31°05' E 122°46'.

Length 349 m; draft 11.3 m.

Type: Ship (hazmat cat A). MMSI: 356581000.

Date/timePositionNaut miles runAvg speedWind from/ knotsBaromVisibWave heightAir tempDewpointWater temp
2018-Feb-14 20:50N 31°05' E 122°46'511.6
2018-Feb-14 20:25N 31°05' E 122°40'511.9
2018-Feb-14 19:58N 31°05' E 122°34'3411.9
2018-Feb-14 17:07N 31°15' E 121°56'215.3
2018-Feb-14 17:00N 31°16' E 121°54'714.5
2018-Feb-14 16:30N 31°18' E 121°46'510.7
2018-Feb-14 16:00N 31°21' E 121°40'4 7.5
2018-Feb-14 15:30N 31°22' E 121°36'2 0.7
2018-Feb-14 13:11N 31°23' E 121°35'0 0.0
2018-Feb-14 12:53N 31°23' E 121°35'0 0.0
2018-Feb-14 12:29N 31°23' E 121°35'0 0.0
2018-Feb-14 11:47N 31°23' E 121°35'0 0.0
2018-Feb-14 11:29N 31°23' E 121°35'0 0.0
2018-Feb-14 10:59N 31°23' E 121°35'0 0.0
2018-Feb-14 10:23N 31°23' E 121°35'0 0.0
2018-Feb-14 09:53N 31°23' E 121°35'0 0.0
2018-Feb-14 09:23N 31°23' E 121°35'0 0.0
2018-Feb-14 08:59N 31°23' E 121°35'0 0.0
2018-Feb-14 06:41N 31°23' E 121°35'0 0.0
2018-Feb-14 03:05N 31°23' E 121°35'0 0.0
2018-Feb-13 23:35N 31°23' E 121°35'0 0.0
2018-Feb-13 23:17N 31°23' E 121°35'0 0.0
2018-Feb-13 22:47N 31°23' E 121°35'0 0.0
2018-Feb-13 22:17N 31°23' E 121°35'0 0.0
2018-Feb-13 21:59N 31°23' E 121°35'0 0.0
2018-Feb-13 20:59N 31°23' E 121°35'0 0.0
2018-Feb-13 19:53N 31°23' E 121°35'0 0.0
2018-Feb-13 19:29N 31°23' E 121°35'0 0.0
2018-Feb-13 10:53N 31°23' E 121°35'0 0.0
2018-Feb-13 07:59N 31°23' E 121°35'0 0.0
2018-Feb-12 23:29N 31°23' E 121°35'0 0.0
2018-Feb-12 22:59N 31°23' E 121°35'0 0.0
2018-Feb-12 22:23N 31°23' E 121°35'0 0.0
2018-Feb-12 21:47N 31°23' E 121°35'0 0.0
2018-Feb-12 21:29N 31°23' E 121°35'0 0.0
2018-Feb-12 19:29N 31°23' E 121°35'0 0.0
2018-Feb-12 18:59N 31°23' E 121°35'0 0.0
2018-Feb-12 18:23N 31°23' E 121°35'0 0.0
2018-Feb-12 16:47N 31°23' E 121°35'0 0.0
2018-Feb-12 16:29N 31°23' E 121°35'0 0.0
2018-Feb-12 14:41N 31°23' E 121°35'1 1.4
2018-Feb-12 14:05N 31°23' E 121°35'12 9.1
2018-Feb-12 12:45N 31°18' E 121°47'510.7
2018-Feb-12 12:17N 31°16' E 121°53'6 9.8
2018-Feb-12 11:42N 31°15' E 121°59'2 9.6
2018-Feb-12 11:29N 31°15' E 122°02'4 9.0
2018-Feb-12 11:00N 31°13' E 122°06'4 8.3
2018-Feb-12 10:28N 31°11' E 122°11'4 8.0
2018-Feb-12 10:00N 31°09' E 122°14'4 8.1
2018-Feb-12 09:30N 31°06' E 122°18'  
2018-Feb-07 04:53N 38°51' E 121°57'1313.4
2018-Feb-07 03:57N 38°40' E 122°03'  
Track history (hours):
 
Tides and Currents Weather Stations Pressure Air Temp Water Temp Dewpoint Dewpoint Depression Visibility Wind Speed Wind Dir Waves Ship Positions

Cosco Asia

Last reported at 2018-Feb-14 20:50 UTC. Time now 2018-Feb-19 18:15 UTC.
Position N 31°05' E 122°46'.

Length 349 m; draft 11.3 m.

Type: Ship (hazmat cat A). MMSI: 356581000.

Date/timePositionNaut miles runAvg speedWind from/ knotsBaromVisibWave heightAir tempDewpointWater temp
2018-Feb-14 20:50N 31°05' E 122°46'511.6
2018-Feb-14 20:25N 31°05' E 122°40'511.9
2018-Feb-14 19:58N 31°05' E 122°34'3411.9
2018-Feb-14 17:07N 31°15' E 121°56'215.3
2018-Feb-14 17:00N 31°16' E 121°54'714.5
2018-Feb-14 16:30N 31°18' E 121°46'510.7
2018-Feb-14 16:00N 31°21' E 121°40'4 7.5
2018-Feb-14 15:30N 31°22' E 121°36'2 0.7
2018-Feb-14 13:11N 31°23' E 121°35'0 0.0
2018-Feb-14 12:53N 31°23' E 121°35'0 0.0
2018-Feb-14 12:29N 31°23' E 121°35'0 0.0
2018-Feb-14 11:47N 31°23' E 121°35'0 0.0
2018-Feb-14 11:29N 31°23' E 121°35'0 0.0
2018-Feb-14 10:59N 31°23' E 121°35'0 0.0
2018-Feb-14 10:23N 31°23' E 121°35'0 0.0
2018-Feb-14 09:53N 31°23' E 121°35'0 0.0
2018-Feb-14 09:23N 31°23' E 121°35'0 0.0
2018-Feb-14 08:59N 31°23' E 121°35'0 0.0
2018-Feb-14 06:41N 31°23' E 121°35'0 0.0
2018-Feb-14 03:05N 31°23' E 121°35'0 0.0
2018-Feb-13 23:35N 31°23' E 121°35'0 0.0
2018-Feb-13 23:17N 31°23' E 121°35'0 0.0
2018-Feb-13 22:47N 31°23' E 121°35'0 0.0
2018-Feb-13 22:17N 31°23' E 121°35'0 0.0
2018-Feb-13 21:59N 31°23' E 121°35'0 0.0
2018-Feb-13 20:59N 31°23' E 121°35'0 0.0
2018-Feb-13 19:53N 31°23' E 121°35'0 0.0
2018-Feb-13 19:29N 31°23' E 121°35'0 0.0
2018-Feb-13 10:53N 31°23' E 121°35'0 0.0
2018-Feb-13 07:59N 31°23' E 121°35'0 0.0
2018-Feb-12 23:29N 31°23' E 121°35'0 0.0
2018-Feb-12 22:59N 31°23' E 121°35'0 0.0
2018-Feb-12 22:23N 31°23' E 121°35'0 0.0
2018-Feb-12 21:47N 31°23' E 121°35'0 0.0
2018-Feb-12 21:29N 31°23' E 121°35'0 0.0
2018-Feb-12 19:29N 31°23' E 121°35'0 0.0
2018-Feb-12 18:59N 31°23' E 121°35'0 0.0
2018-Feb-12 18:23N 31°23' E 121°35'0 0.0
2018-Feb-12 16:47N 31°23' E 121°35'0 0.0
2018-Feb-12 16:29N 31°23' E 121°35'0 0.0
2018-Feb-12 14:41N 31°23' E 121°35'1 1.4
2018-Feb-12 14:05N 31°23' E 121°35'12 9.1
2018-Feb-12 12:45N 31°18' E 121°47'510.7
2018-Feb-12 12:17N 31°16' E 121°53'6 9.8
2018-Feb-12 11:42N 31°15' E 121°59'2 9.6
2018-Feb-12 11:29N 31°15' E 122°02'4 9.0
2018-Feb-12 11:00N 31°13' E 122°06'4 8.3
2018-Feb-12 10:28N 31°11' E 122°11'4 8.0
2018-Feb-12 10:00N 31°09' E 122°14'4 8.1
2018-Feb-12 09:30N 31°06' E 122°18'  
2018-Feb-07 04:53N 38°51' E 121°57'1313.4
2018-Feb-07 03:57N 38°40' E 122°03'  

Dump ship's entire track history